createdAt,value
2023-01-17T00:00:43.038Z,31.27
2023-01-17T00:01:45.882Z,31.60
2023-01-17T00:02:54.892Z,32.40
2023-01-17T00:04:16.523Z,29.98
2023-01-17T00:05:37.559Z,31.15
2023-01-17T00:06:59.005Z,33.88
2023-01-17T00:08:21.793Z,31.83
2023-01-17T00:09:43.115Z,29.83
2023-01-17T00:10:46.046Z,31.08
2023-01-17T00:11:59.154Z,29.50
2023-01-17T00:13:04.789Z,29.63
2023-01-17T00:14:09.878Z,30.65
2023-01-17T00:15:12.587Z,30.98
2023-01-17T00:16:19.622Z,31.15
2023-01-17T00:17:28.979Z,31.00
2023-01-17T00:18:33.172Z,31.00
2023-01-17T00:21:26.231Z,33.22
2023-01-17T00:22:51.111Z,34.15
2023-01-17T00:24:13.695Z,30.73
2023-01-17T00:25:37.424Z,35.25
2023-01-17T00:27:01.494Z,33.72
2023-01-17T00:28:05.151Z,34.70
2023-01-17T00:29:11.665Z,34.95
2023-01-17T00:30:15.228Z,35.03
2023-01-17T00:31:18.562Z,34.30
2023-01-17T00:32:24.134Z,34.33
2023-01-17T00:33:29.262Z,35.63
2023-01-17T00:34:34.451Z,28.42
2023-01-17T00:35:37.292Z,34.00
2023-01-17T00:36:42.570Z,33.70
2023-01-17T00:37:49.610Z,33.63
2023-01-17T00:38:58.062Z,32.08
2023-01-17T00:40:00.880Z,34.40
2023-01-17T00:41:06.848Z,30.88
2023-01-17T00:42:11.382Z,34.88
2023-01-17T00:44:59.453Z,35.75
2023-01-17T00:46:24.784Z,33.63
2023-01-17T00:47:49.649Z,35.45
2023-01-17T00:49:13.918Z,32.28
2023-01-17T00:50:35.181Z,34.13
2023-01-17T00:51:57.268Z,38.35
2023-01-17T00:53:27.516Z,32.92
2023-01-17T00:54:51.462Z,31.75
2023-01-17T00:56:13.000Z,39.05
2023-01-17T00:57:34.766Z,35.53
2023-01-17T00:58:55.955Z,36.40
2023-01-17T01:00:19.696Z,36.22
2023-01-17T01:01:43.608Z,40.10
2023-01-17T01:03:05.556Z,51.22
2023-01-17T01:04:26.831Z,60.67
2023-01-17T01:05:48.250Z,55.90
2023-01-17T01:07:09.660Z,53.58
2023-01-17T01:08:42.848Z,46.28
2023-01-17T01:10:04.114Z,48.30
2023-01-17T01:11:31.819Z,42.30
2023-01-17T01:12:53.339Z,40.38
2023-01-17T01:14:15.636Z,46.88
2023-01-17T01:15:36.881Z,46.95
2023-01-17T01:16:57.914Z,49.85
2023-01-17T01:18:28.308Z,51.20
2023-01-17T01:19:49.532Z,42.58
2023-01-17T01:21:10.589Z,42.47
2023-01-17T01:22:32.019Z,45.97
2023-01-17T01:24:12.158Z,42.95
2023-01-17T01:25:33.379Z,35.92
2023-01-17T01:26:54.865Z,56.10
2023-01-17T01:28:36.572Z,56.20
2023-01-17T01:29:57.910Z,44.55
2023-01-17T01:31:20.330Z,42.95
2023-01-17T01:32:41.556Z,44.45
2023-01-17T01:33:44.404Z,44.03
2023-01-17T01:34:49.377Z,41.72
2023-01-17T01:35:54.482Z,43.65
2023-01-17T01:36:57.368Z,44.40
2023-01-17T01:38:02.055Z,37.25
2023-01-17T01:39:04.734Z,45.08
2023-01-17T01:41:25.852Z,37.90
2023-01-17T01:42:28.792Z,35.35
2023-01-17T01:43:44.507Z,32.72
2023-01-17T01:44:52.644Z,43.45
2023-01-17T01:45:58.274Z,43.85
2023-01-17T01:47:02.412Z,36.38
2023-01-17T01:48:24.498Z,39.30
2023-01-17T01:49:28.572Z,37.88
2023-01-17T01:50:34.254Z,41.97
2023-01-17T01:51:45.299Z,41.42
2023-01-17T01:52:52.758Z,42.00
2023-01-17T01:54:01.774Z,40.03
2023-01-17T01:55:13.470Z,41.55
2023-01-17T01:56:16.859Z,36.83
2023-01-17T01:57:24.586Z,37.42
2023-01-17T01:58:33.390Z,34.58
2023-01-17T01:59:41.784Z,34.97
2023-01-17T02:00:44.569Z,33.03
2023-01-17T02:01:51.811Z,34.50
2023-01-17T02:02:58.151Z,33.15
2023-01-17T02:04:02.501Z,31.45
2023-01-17T02:05:07.131Z,37.00
2023-01-17T02:06:27.923Z,35.50
2023-01-17T02:07:59.966Z,32.22
2023-01-17T02:09:07.738Z,27.00
2023-01-17T02:10:11.405Z,28.35
2023-01-17T02:11:16.409Z,28.20
2023-01-17T02:12:21.509Z,30.02
2023-01-17T02:13:24.569Z,31.35
2023-01-17T02:14:27.538Z,32.80
2023-01-17T02:15:40.055Z,33.42
2023-01-17T02:16:48.081Z,29.60
2023-01-17T02:18:11.722Z,30.52
2023-01-17T02:19:17.396Z,31.98
2023-01-17T02:20:58.380Z,29.15
2023-01-17T02:22:26.269Z,29.67
2023-01-17T02:24:06.457Z,28.40
2023-01-17T02:25:18.059Z,30.63
2023-01-17T02:26:40.004Z,32.20
2023-01-17T02:28:15.824Z,28.00
2023-01-17T02:29:36.845Z,35.40
2023-01-17T02:31:02.405Z,30.27
2023-01-17T02:32:30.239Z,30.42
2023-01-17T02:33:49.616Z,28.95
2023-01-17T02:35:02.081Z,28.65
2023-01-17T02:36:19.671Z,34.55
2023-01-17T02:37:57.000Z,32.20
2023-01-17T02:39:15.687Z,30.40
2023-01-17T02:40:31.501Z,30.45
2023-01-17T02:41:36.913Z,29.10
2023-01-17T02:42:45.865Z,30.90
2023-01-17T02:43:54.114Z,32.97
2023-01-17T02:44:56.868Z,32.10
2023-01-17T02:45:59.581Z,31.05
2023-01-17T02:47:02.544Z,33.75
2023-01-17T02:48:08.705Z,32.58
2023-01-17T02:49:12.043Z,29.15
2023-01-17T02:50:28.769Z,35.33
2023-01-17T02:53:21.643Z,33.28
2023-01-17T02:54:32.418Z,33.78
2023-01-17T02:55:52.854Z,29.95
2023-01-17T02:57:20.238Z,28.30
2023-01-17T02:58:40.104Z,28.70
2023-01-17T03:00:15.580Z,29.33
2023-01-17T03:01:53.839Z,26.30
2023-01-17T03:03:07.326Z,26.42
2023-01-17T03:04:20.282Z,23.67
2023-01-17T03:05:42.077Z,27.90
2023-01-17T03:07:05.309Z,27.60
2023-01-17T03:08:08.792Z,31.55
2023-01-17T03:09:15.056Z,28.83
2023-01-17T03:10:19.547Z,28.55
2023-01-17T03:11:25.107Z,30.15
2023-01-17T03:12:30.759Z,28.65
2023-01-17T03:13:33.451Z,31.27
2023-01-17T03:14:36.130Z,31.98
2023-01-17T03:15:39.764Z,31.15
2023-01-17T03:16:42.979Z,28.08
2023-01-17T03:17:49.820Z,29.52
2023-01-17T03:18:54.112Z,28.95
2023-01-17T03:20:59.715Z,25.35
2023-01-17T03:22:05.059Z,30.15
2023-01-17T03:23:07.765Z,29.75
2023-01-17T03:24:10.593Z,28.83
2023-01-17T03:25:14.155Z,27.95
2023-01-17T03:26:17.402Z,29.50
2023-01-17T03:27:20.307Z,31.75
2023-01-17T03:28:24.112Z,31.73
2023-01-17T03:29:27.171Z,29.70
2023-01-17T03:30:30.141Z,30.90
2023-01-17T03:31:36.037Z,32.78
2023-01-17T03:32:39.241Z,29.52
2023-01-17T03:33:49.218Z,28.52
2023-01-17T03:34:59.269Z,31.98
2023-01-17T03:36:01.998Z,26.70
2023-01-17T03:37:04.742Z,28.23
2023-01-17T03:38:07.827Z,26.08
2023-01-17T03:39:40.335Z,31.90
2023-01-17T03:40:50.108Z,27.63
2023-01-17T03:44:23.030Z,24.00
2023-01-17T03:45:29.440Z,28.17
2023-01-17T03:46:32.248Z,25.40
2023-01-17T03:47:36.485Z,26.77
2023-01-17T03:48:41.292Z,27.08
2023-01-17T03:49:44.214Z,26.98
2023-01-17T03:50:51.491Z,29.30
2023-01-17T03:51:56.461Z,27.50
2023-01-17T03:53:01.385Z,29.48
2023-01-17T03:54:04.487Z,29.10
2023-01-17T03:55:07.694Z,25.08
2023-01-17T03:56:10.293Z,27.52
2023-01-17T03:57:16.019Z,29.08
2023-01-17T03:58:18.938Z,27.77
2023-01-17T03:59:21.702Z,29.15
2023-01-17T04:00:26.028Z,26.27
2023-01-17T04:01:28.789Z,27.25
2023-01-17T04:02:35.035Z,28.75
2023-01-17T04:03:40.586Z,29.65
2023-01-17T04:04:47.531Z,27.65
2023-01-17T04:07:23.544Z,25.05
2023-01-17T04:08:26.377Z,23.92
2023-01-17T04:09:36.777Z,28.58
2023-01-17T04:10:49.632Z,26.35
2023-01-17T04:11:55.044Z,26.05
2023-01-17T04:13:00.414Z,28.95
2023-01-17T04:14:06.545Z,28.65
2023-01-17T04:15:14.650Z,33.75
2023-01-17T04:16:18.646Z,27.38
2023-01-17T04:17:36.930Z,29.38
2023-01-17T04:18:42.661Z,27.83
2023-01-17T04:19:46.590Z,27.52
2023-01-17T04:20:49.546Z,31.73
2023-01-17T04:21:52.189Z,28.75
2023-01-17T04:22:54.967Z,33.92
2023-01-17T04:24:01.909Z,29.75
2023-01-17T04:25:09.003Z,31.67
2023-01-17T04:26:15.271Z,28.25
2023-01-17T04:27:18.403Z,30.05
2023-01-17T04:28:25.392Z,28.42
2023-01-17T04:29:49.219Z,26.23
2023-01-17T04:30:59.777Z,30.98
2023-01-17T04:32:05.426Z,28.02
2023-01-17T04:33:29.012Z,26.80
2023-01-17T04:34:34.083Z,32.35
2023-01-17T04:35:40.640Z,26.98
2023-01-17T04:36:56.486Z,31.05
2023-01-17T04:38:06.451Z,30.63
2023-01-17T04:39:14.808Z,29.00
2023-01-17T04:40:27.009Z,25.50
2023-01-17T04:41:41.419Z,32.53
2023-01-17T04:42:55.341Z,32.92
2023-01-17T04:44:04.027Z,35.75
2023-01-17T04:45:07.645Z,38.60
2023-01-17T04:46:16.094Z,41.10
2023-01-17T04:47:23.109Z,44.35
2023-01-17T04:48:28.539Z,48.05
2023-01-17T04:49:34.002Z,47.60
2023-01-17T04:50:36.481Z,50.42
2023-01-17T04:51:39.014Z,50.03
2023-01-17T04:52:41.615Z,46.00
2023-01-17T04:53:44.182Z,42.47
2023-01-17T04:54:53.155Z,42.88
2023-01-17T04:55:58.485Z,39.55
2023-01-17T04:57:01.150Z,38.15
2023-01-17T04:58:04.190Z,36.58
2023-01-17T04:59:07.040Z,37.38
2023-01-17T05:00:12.559Z,37.25
2023-01-17T05:01:15.463Z,31.65
2023-01-17T05:02:18.195Z,38.15
2023-01-17T05:03:24.602Z,38.25
2023-01-17T05:04:30.433Z,39.63
2023-01-17T05:05:33.333Z,39.10
2023-01-17T05:06:36.136Z,39.38
2023-01-17T05:07:38.896Z,39.47
2023-01-17T05:08:45.425Z,40.03
2023-01-17T05:10:01.252Z,38.08
2023-01-17T05:11:12.367Z,45.78
2023-01-17T05:12:18.070Z,42.67
2023-01-17T05:13:23.256Z,45.13
2023-01-17T05:14:29.204Z,43.20
2023-01-17T05:15:32.486Z,56.38
2023-01-17T05:16:35.194Z,45.08
2023-01-17T05:17:42.088Z,52.20
2023-01-17T05:18:47.928Z,44.15
2023-01-17T05:19:53.408Z,42.78
2023-01-17T05:21:04.435Z,42.35
2023-01-17T05:22:16.011Z,42.83
2023-01-17T05:23:18.679Z,52.97
2023-01-17T05:24:21.579Z,49.90
2023-01-17T05:25:29.102Z,44.63
2023-01-17T05:26:33.486Z,45.78
2023-01-17T05:27:36.344Z,46.95
2023-01-17T05:28:39.362Z,45.78
2023-01-17T05:29:42.181Z,46.03
2023-01-17T05:30:44.892Z,47.40
2023-01-17T05:31:47.544Z,45.13
2023-01-17T05:32:54.467Z,37.95
2023-01-17T05:34:02.767Z,42.10
2023-01-17T05:35:06.318Z,39.25
2023-01-17T05:36:09.694Z,39.88
2023-01-17T05:37:12.322Z,48.30
2023-01-17T05:38:15.209Z,40.17
2023-01-17T05:39:18.005Z,40.88
2023-01-17T05:40:25.717Z,38.63
2023-01-17T05:41:28.414Z,37.75
2023-01-17T05:42:30.917Z,38.33
2023-01-17T05:43:33.653Z,41.85
2023-01-17T05:44:36.374Z,34.72
2023-01-17T05:45:39.160Z,36.65
2023-01-17T05:46:45.421Z,34.13
2023-01-17T05:47:51.805Z,37.20
2023-01-17T05:48:54.596Z,30.25
2023-01-17T05:49:57.222Z,34.30
2023-01-17T05:51:02.265Z,33.80
2023-01-17T05:52:04.998Z,26.48
2023-01-17T05:53:10.989Z,22.15
2023-01-17T05:54:16.741Z,20.65
2023-01-17T05:55:26.012Z,26.35
2023-01-17T05:56:31.043Z,23.45
2023-01-17T05:57:36.199Z,17.77
2023-01-17T05:58:40.361Z,19.05
2023-01-17T06:00:45.891Z,13.82
2023-01-17T06:01:48.696Z,15.25
2023-01-17T06:02:57.231Z,18.55
2023-01-17T06:04:00.032Z,12.23
2023-01-17T06:05:03.616Z,15.05
2023-01-17T06:06:07.420Z,13.95
2023-01-17T06:07:10.087Z,12.38
2023-01-17T06:08:12.675Z,16.35
2023-01-17T06:09:15.171Z,14.75
2023-01-17T06:10:22.473Z,16.17
2023-01-17T06:11:24.928Z,18.20
2023-01-17T06:12:27.459Z,20.75
2023-01-17T06:13:30.089Z,23.02
2023-01-17T06:14:32.558Z,22.45
2023-01-17T06:15:37.301Z,21.42
2023-01-17T06:16:39.973Z,19.52
2023-01-17T06:17:42.613Z,21.00
2023-01-17T06:18:45.303Z,19.17
2023-01-17T06:19:48.083Z,18.77
2023-01-17T06:20:57.339Z,18.80
2023-01-17T06:21:59.939Z,18.55
2023-01-17T06:23:04.662Z,22.23
2023-01-17T06:24:07.611Z,22.05
2023-01-17T06:25:10.545Z,21.27
2023-01-17T06:26:13.218Z,20.92
2023-01-17T06:27:15.823Z,18.15
2023-01-17T06:28:20.872Z,18.15
2023-01-17T06:29:26.373Z,15.85
2023-01-17T06:30:28.927Z,17.77
2023-01-17T06:31:31.391Z,22.60
2023-01-17T06:32:33.986Z,23.92
2023-01-17T06:33:36.920Z,17.33
2023-01-17T06:34:39.368Z,18.80
2023-01-17T06:35:49.817Z,17.63
2023-01-17T06:36:52.645Z,21.63
2023-01-17T06:37:55.971Z,20.60
2023-01-17T06:38:58.793Z,26.00
2023-01-17T06:40:01.640Z,23.08
2023-01-17T06:41:05.894Z,31.67
2023-01-17T06:43:11.014Z,55.38
2023-01-17T06:44:13.583Z,69.45
2023-01-17T06:45:16.386Z,66.10
2023-01-17T06:46:18.955Z,62.42
2023-01-17T06:47:21.573Z,57.78
2023-01-17T06:48:24.422Z,64.18
2023-01-17T06:49:29.968Z,73.28
2023-01-17T06:50:40.748Z,69.55
2023-01-17T06:51:43.789Z,59.05
2023-01-17T06:52:55.474Z,44.35
2023-01-17T06:53:58.294Z,33.22
2023-01-17T06:55:01.025Z,28.50
2023-01-17T06:56:03.725Z,27.40
2023-01-17T06:57:08.101Z,26.67
2023-01-17T06:58:10.916Z,25.10
2023-01-17T06:59:13.589Z,31.25
2023-01-17T07:00:16.794Z,33.03
2023-01-17T07:01:19.838Z,30.92
2023-01-17T07:02:23.376Z,28.55
2023-01-17T07:03:27.444Z,31.92
2023-01-17T07:05:34.920Z,24.25
2023-01-17T07:06:37.647Z,23.02
2023-01-17T07:07:40.334Z,25.40
2023-01-17T07:08:42.925Z,20.98
2023-01-17T07:09:45.479Z,17.30
2023-01-17T07:10:49.105Z,18.58
2023-01-17T07:11:52.910Z,16.77
2023-01-17T07:13:00.587Z,19.90
2023-01-17T07:14:03.069Z,17.75
2023-01-17T07:15:06.759Z,18.10
2023-01-17T07:16:09.600Z,16.95
2023-01-17T07:17:12.616Z,19.85
2023-01-17T07:18:20.716Z,18.70
2023-01-17T07:19:26.329Z,22.05
2023-01-17T07:22:45.410Z,16.38
2023-01-17T07:23:48.430Z,20.05
2023-01-17T07:24:50.907Z,18.77
2023-01-17T07:26:01.136Z,19.05
2023-01-17T07:27:04.265Z,15.52
2023-01-17T07:28:14.001Z,17.42
2023-01-17T07:29:17.229Z,18.77
2023-01-17T07:30:24.236Z,17.65
2023-01-17T07:31:28.481Z,19.20
2023-01-17T07:32:31.065Z,15.50
2023-01-17T07:33:34.640Z,19.40
2023-01-17T07:34:38.709Z,21.25
2023-01-17T07:35:45.397Z,20.77
2023-01-17T07:36:50.451Z,21.67
2023-01-17T07:37:54.792Z,18.75
2023-01-17T07:38:59.434Z,20.75
2023-01-17T07:40:03.248Z,19.45
2023-01-17T07:41:05.844Z,23.58
2023-01-17T07:42:09.662Z,21.05
2023-01-17T07:43:16.953Z,18.05
2023-01-17T07:44:19.593Z,20.42
2023-01-17T07:45:22.280Z,14.68
2023-01-17T07:46:24.858Z,17.77
2023-01-17T07:47:27.517Z,16.42
2023-01-17T07:48:31.074Z,17.85
2023-01-17T07:49:33.662Z,11.60
2023-01-17T07:50:36.726Z,17.80
2023-01-17T07:51:40.177Z,20.08
2023-01-17T07:52:45.312Z,19.73
2023-01-17T07:53:47.912Z,19.77
2023-01-17T07:54:50.694Z,19.35
2023-01-17T07:55:56.218Z,22.08
2023-01-17T07:57:00.056Z,16.60
2023-01-17T07:58:04.273Z,18.58
2023-01-17T08:00:10.163Z,21.50
2023-01-17T08:01:16.748Z,18.38
2023-01-17T08:02:28.297Z,20.70
2023-01-17T08:03:32.649Z,19.73
2023-01-17T08:04:35.572Z,19.75
2023-01-17T08:05:38.177Z,23.40
2023-01-17T08:06:44.111Z,21.33
2023-01-17T08:07:46.767Z,17.70
2023-01-17T08:08:49.619Z,23.35
2023-01-17T08:09:52.484Z,16.48
2023-01-17T08:10:55.175Z,18.80
2023-01-17T08:11:57.843Z,25.23
2023-01-17T08:13:00.515Z,18.85
2023-01-17T08:14:03.151Z,23.90
2023-01-17T08:15:06.848Z,24.10
2023-01-17T08:16:13.634Z,20.98
2023-01-17T08:17:17.409Z,19.20
2023-01-17T08:18:20.067Z,23.00
2023-01-17T08:19:22.720Z,27.75
2023-01-17T08:20:27.820Z,20.52
2023-01-17T08:21:30.921Z,17.60
2023-01-17T08:22:33.654Z,28.90
2023-01-17T08:23:36.364Z,28.75
2023-01-17T08:24:39.173Z,22.65
2023-01-17T08:25:41.812Z,25.88
2023-01-17T08:26:44.524Z,20.98
2023-01-17T08:27:47.426Z,24.95
2023-01-17T08:29:10.908Z,20.63
2023-01-17T08:30:16.867Z,21.58
2023-01-17T08:31:20.420Z,17.38
2023-01-17T08:32:30.303Z,13.13
2023-01-17T08:33:44.511Z,17.25
2023-01-17T08:34:52.824Z,19.83
2023-01-17T08:36:03.141Z,21.70
2023-01-17T08:37:06.036Z,19.70
2023-01-17T08:38:09.744Z,18.35
2023-01-17T08:39:23.383Z,15.05
2023-01-17T08:40:28.688Z,15.95
2023-01-17T08:41:36.837Z,18.25
2023-01-17T08:42:42.490Z,17.02
2023-01-17T08:43:49.742Z,19.25
2023-01-17T08:44:52.464Z,16.15
2023-01-17T08:45:56.331Z,18.17
2023-01-17T08:47:06.319Z,17.13
2023-01-17T08:51:36.797Z,18.30
2023-01-17T08:52:39.438Z,13.82
2023-01-17T08:53:48.846Z,14.80
2023-01-17T08:54:57.492Z,18.33
2023-01-17T08:56:01.972Z,17.10
2023-01-17T08:57:05.457Z,19.65
2023-01-17T08:58:08.754Z,15.40
2023-01-17T08:59:13.939Z,14.20
2023-01-17T09:00:17.016Z,12.95
2023-01-17T09:01:20.296Z,15.02
2023-01-17T09:02:25.018Z,15.95
2023-01-17T09:03:28.760Z,18.52
2023-01-17T09:04:31.415Z,13.63
2023-01-17T09:05:34.210Z,12.27
2023-01-17T09:06:42.282Z,11.45
2023-01-17T09:07:44.730Z,12.27
2023-01-17T09:08:49.174Z,8.32
2023-01-17T09:09:52.958Z,10.05
2023-01-17T09:10:55.644Z,10.82
2023-01-17T09:12:02.581Z,10.15
2023-01-17T09:13:07.763Z,8.40
2023-01-17T09:14:13.410Z,11.13
2023-01-17T09:15:20.430Z,10.65
2023-01-17T09:16:23.531Z,10.65
2023-01-17T09:17:27.605Z,7.60
2023-01-17T09:18:31.769Z,12.32
2023-01-17T09:19:37.789Z,11.77
2023-01-17T09:20:43.895Z,11.05
2023-01-17T09:21:49.792Z,7.82
2023-01-17T09:22:52.503Z,8.35
2023-01-17T09:23:56.324Z,9.27
2023-01-17T09:24:59.672Z,8.32
2023-01-17T09:26:02.178Z,10.27
2023-01-17T09:27:04.981Z,9.43
2023-01-17T09:28:12.131Z,8.85
2023-01-17T09:29:18.012Z,9.68
2023-01-17T09:30:20.784Z,11.13
2023-01-17T09:31:24.175Z,17.15
2023-01-17T09:32:26.902Z,15.70
2023-01-17T09:33:29.838Z,8.95
2023-01-17T09:34:32.393Z,12.68
2023-01-17T09:35:38.131Z,10.52
2023-01-17T09:36:44.005Z,12.40
2023-01-17T09:37:50.857Z,12.85
2023-01-17T09:38:58.858Z,14.23
2023-01-17T09:40:01.704Z,9.13
2023-01-17T09:41:29.486Z,12.63
2023-01-17T09:42:41.300Z,9.82
2023-01-17T09:44:25.193Z,9.65
2023-01-17T09:45:31.558Z,10.07
2023-01-17T09:46:42.435Z,6.43
2023-01-17T09:47:48.994Z,7.35
2023-01-17T09:49:02.205Z,8.32
2023-01-17T09:50:23.856Z,7.45
2023-01-17T09:51:30.649Z,9.00
2023-01-17T09:54:49.771Z,8.10
2023-01-17T09:57:38.577Z,7.20
2023-01-17T09:58:50.980Z,5.75
2023-01-17T10:00:03.570Z,7.47
2023-01-17T10:01:18.965Z,6.32
2023-01-17T10:02:48.927Z,9.05
2023-01-17T10:04:19.749Z,6.57
2023-01-17T10:05:59.290Z,7.93
2023-01-17T10:07:21.082Z,4.40
2023-01-17T10:08:42.065Z,6.93
2023-01-17T10:09:47.198Z,6.30
2023-01-17T10:11:09.119Z,5.72
2023-01-17T10:12:33.777Z,7.00
2023-01-17T10:14:19.049Z,5.75
2023-01-17T10:15:49.935Z,6.35
2023-01-17T10:17:13.983Z,7.15
2023-01-17T10:18:48.703Z,8.60
2023-01-17T10:19:58.190Z,6.55
2023-01-17T10:21:36.434Z,5.35
2023-01-17T10:23:04.217Z,6.35
2023-01-17T10:24:23.347Z,6.22
2023-01-17T10:25:42.936Z,7.97
2023-01-17T10:26:49.068Z,6.90
2023-01-17T10:28:08.764Z,10.55
2023-01-17T10:29:20.271Z,9.60
2023-01-17T10:30:32.152Z,7.60
2023-01-17T10:31:42.944Z,10.10
2023-01-17T10:32:49.023Z,7.93
2023-01-17T10:34:19.947Z,6.80
2023-01-17T10:35:35.248Z,7.60
2023-01-17T10:36:45.287Z,4.07
2023-01-17T10:37:57.001Z,7.55
2023-01-17T10:40:15.650Z,5.82
2023-01-17T10:42:13.164Z,3.50
2023-01-17T10:43:28.018Z,4.65
2023-01-17T10:44:48.471Z,7.30
2023-01-17T10:45:54.796Z,5.05
2023-01-17T10:47:12.081Z,5.53
2023-01-17T10:48:43.800Z,7.20
2023-01-17T10:49:57.871Z,5.40
2023-01-17T10:51:38.311Z,4.63
2023-01-17T10:56:50.426Z,5.65
2023-01-17T10:57:23.923Z,4.50
2023-01-17T10:58:36.840Z,5.50
2023-01-17T10:59:44.248Z,3.95
2023-01-17T11:00:50.354Z,5.55
2023-01-17T11:02:07.276Z,5.03
2023-01-17T11:03:22.313Z,4.18
2023-01-17T11:04:35.258Z,7.68
2023-01-17T11:05:38.187Z,8.27
2023-01-17T11:07:32.671Z,6.75
2023-01-17T11:09:11.970Z,7.72
2023-01-17T11:10:54.552Z,7.43
2023-01-17T11:11:57.443Z,6.53
2023-01-17T11:12:59.947Z,5.28
2023-01-17T11:14:16.034Z,7.63
2023-01-17T11:15:46.418Z,7.55
2023-01-17T11:17:14.887Z,5.90
2023-01-17T11:18:20.705Z,6.97
2023-01-17T11:19:36.479Z,7.50
2023-01-17T11:20:51.328Z,7.50
2023-01-17T11:21:59.692Z,7.15
2023-01-17T11:23:07.769Z,6.75
2023-01-17T11:24:19.950Z,6.60
2023-01-17T11:25:41.045Z,6.35
2023-01-17T11:27:05.846Z,9.13
2023-01-17T11:28:22.055Z,4.45
2023-01-17T11:30:27.709Z,3.47
2023-01-17T11:31:27.857Z,3.75
2023-01-17T11:32:33.982Z,4.30
2023-01-17T11:33:45.512Z,5.35
2023-01-17T11:35:37.466Z,4.88
2023-01-17T11:36:45.453Z,3.88
2023-01-17T11:41:41.501Z,6.90
2023-01-17T11:59:01.189Z,8.25
2023-01-17T12:05:44.204Z,12.27
2023-01-17T12:12:11.462Z,7.13
2023-01-17T12:32:19.746Z,3.38
2023-01-17T12:38:34.482Z,3.08
2023-01-17T12:40:50.683Z,6.13
2023-01-17T12:42:19.030Z,3.70
2023-01-17T12:43:41.818Z,3.70
2023-01-17T13:27:53.452Z,3.78
2023-01-17T13:29:12.157Z,2.65
2023-01-17T13:30:22.459Z,6.85
2023-01-17T13:31:48.727Z,6.03
2023-01-17T13:33:09.093Z,3.45
2023-01-17T14:18:44.367Z,38.25
2023-01-17T14:32:26.162Z,10.85
2023-01-17T14:33:43.921Z,10.70
2023-01-17T14:51:35.787Z,8.73
2023-01-17T15:09:27.565Z,10.55
2023-01-17T15:11:00.491Z,14.48
2023-01-17T15:12:10.454Z,14.73
2023-01-17T15:13:23.401Z,17.15
2023-01-17T15:14:34.667Z,14.40
2023-01-17T15:15:42.470Z,15.00
2023-01-17T15:16:47.347Z,15.65
2023-01-17T15:18:14.429Z,14.38
2023-01-17T15:19:17.106Z,15.70
2023-01-17T15:20:34.761Z,19.80
2023-01-17T15:21:55.920Z,19.92
2023-01-17T15:23:22.950Z,22.20
2023-01-17T15:24:34.846Z,22.70
2023-01-17T15:25:46.144Z,26.27
2023-01-17T15:26:54.846Z,22.65
2023-01-17T15:27:58.636Z,24.60
2023-01-17T15:29:07.314Z,26.65
2023-01-17T15:30:15.390Z,25.90
2023-01-17T15:31:20.177Z,29.33
2023-01-17T15:32:27.050Z,33.72
2023-01-17T15:33:36.835Z,41.55
2023-01-17T15:34:48.548Z,44.42
2023-01-17T15:36:15.595Z,50.72
2023-01-17T15:39:42.776Z,94.55
2023-01-17T15:44:08.833Z,76.70
2023-01-17T15:45:16.657Z,79.93
2023-01-17T15:46:26.072Z,90.35
2023-01-17T15:47:34.374Z,95.40
2023-01-17T15:48:45.997Z,99.32
2023-01-17T15:49:53.418Z,103.10
2023-01-17T15:50:59.456Z,99.05
2023-01-17T15:52:24.399Z,96.75
2023-01-17T15:53:34.317Z,93.55
2023-01-17T15:54:56.947Z,95.00
2023-01-17T15:59:03.215Z,90.70
2023-01-17T16:02:01.039Z,96.82
2023-01-17T16:03:20.495Z,103.78
2023-01-17T16:04:37.632Z,113.05
2023-01-17T16:05:56.130Z,111.85
2023-01-17T16:10:15.752Z,84.78
2023-01-17T16:11:19.169Z,75.53
2023-01-17T16:12:21.759Z,75.22
2023-01-17T16:13:24.376Z,76.82
2023-01-17T16:14:32.334Z,65.82
2023-01-17T16:15:42.444Z,59.25
2023-01-17T16:16:54.709Z,57.70
2023-01-17T16:18:02.438Z,74.53
2023-01-17T16:19:06.508Z,108.13
2023-01-17T16:20:58.683Z,105.80
2023-01-17T16:22:08.170Z,79.07
2023-01-17T16:23:13.409Z,52.10
2023-01-17T16:24:17.408Z,61.42
2023-01-17T16:25:25.781Z,56.22
2023-01-17T16:26:29.516Z,69.18
2023-01-17T16:27:37.601Z,68.50
2023-01-17T16:28:41.252Z,83.97
2023-01-17T16:29:48.472Z,104.78
2023-01-17T16:31:04.776Z,106.10
2023-01-17T16:32:25.353Z,130.48
2023-01-17T16:34:11.587Z,111.18
2023-01-17T16:35:41.278Z,102.55
2023-01-17T16:36:58.642Z,97.25
2023-01-17T16:38:21.355Z,93.85
2023-01-17T16:39:32.768Z,62.53
2023-01-17T16:43:35.550Z,47.58
2023-01-17T16:44:55.773Z,45.42
2023-01-17T16:46:00.166Z,53.47
2023-01-17T16:47:28.626Z,57.22
2023-01-17T16:48:34.680Z,38.00
2023-01-17T16:49:37.565Z,44.63
2023-01-17T16:50:51.147Z,39.13
2023-01-17T16:51:54.058Z,36.15
2023-01-17T16:53:25.631Z,38.53
2023-01-17T16:55:00.259Z,46.50
2023-01-17T16:56:17.374Z,53.20
2023-01-17T16:57:20.311Z,45.00
2023-01-17T16:58:29.192Z,44.58
2023-01-17T16:59:50.663Z,40.75
2023-01-17T17:01:00.494Z,42.63
2023-01-17T17:02:09.036Z,38.22
2023-01-17T17:03:33.003Z,39.10
2023-01-17T17:04:35.624Z,42.53
2023-01-17T17:05:40.544Z,37.63
2023-01-17T17:06:43.226Z,35.42
2023-01-17T17:07:51.480Z,35.13
2023-01-17T17:08:54.780Z,30.25
2023-01-17T17:09:57.957Z,31.23
2023-01-17T17:11:08.919Z,28.70
2023-01-17T17:12:11.630Z,29.05
2023-01-17T17:13:17.326Z,27.50
2023-01-17T17:14:24.280Z,39.42
2023-01-17T17:15:27.163Z,64.70
2023-01-17T17:16:32.838Z,62.92
2023-01-17T17:17:41.764Z,47.15
2023-01-17T17:18:46.549Z,40.17
2023-01-17T17:20:34.231Z,29.17
2023-01-17T17:21:34.309Z,30.55
2023-01-17T17:22:49.669Z,39.03
2023-01-17T17:25:26.727Z,33.08
2023-01-17T17:26:38.561Z,29.33
2023-01-17T17:27:41.674Z,31.88
2023-01-17T17:28:50.756Z,29.30
2023-01-17T17:29:55.186Z,27.10
2023-01-17T17:31:23.446Z,29.25
2023-01-17T17:32:29.889Z,32.65
2023-01-17T17:33:41.938Z,30.48
2023-01-17T17:34:50.407Z,37.10
2023-01-17T17:36:35.137Z,47.65
2023-01-17T17:37:46.327Z,40.85
2023-01-17T17:38:55.104Z,29.17
2023-01-17T17:40:02.899Z,26.17
2023-01-17T17:41:14.570Z,30.25
2023-01-17T17:42:30.440Z,29.95
2023-01-17T17:44:03.491Z,24.65
2023-01-17T17:47:32.857Z,18.05
2023-01-17T17:48:39.332Z,18.48
2023-01-17T17:50:17.028Z,19.88
2023-01-17T17:51:33.298Z,20.20
2023-01-17T17:52:36.240Z,19.48
2023-01-17T17:53:41.831Z,21.25
2023-01-17T17:54:50.365Z,25.70
2023-01-17T17:55:55.353Z,22.92
2023-01-17T17:56:58.348Z,21.23
2023-01-17T17:58:06.307Z,16.92
2023-01-17T17:59:12.252Z,17.02
2023-01-17T18:00:18.476Z,10.65
2023-01-17T18:01:26.049Z,12.65
2023-01-17T18:02:30.013Z,14.30
2023-01-17T18:03:34.402Z,13.38
2023-01-17T18:04:41.726Z,12.75
2023-01-17T18:05:47.352Z,15.90
2023-01-17T18:07:13.612Z,18.63
2023-01-17T18:08:35.315Z,16.85
2023-01-17T18:09:51.503Z,12.90
2023-01-17T18:11:01.826Z,13.75
2023-01-17T18:12:06.137Z,13.43
2023-01-17T18:13:09.291Z,11.98
2023-01-17T18:14:15.316Z,12.18
2023-01-17T18:15:21.076Z,13.25
2023-01-17T18:16:28.036Z,12.90
2023-01-17T18:17:33.124Z,11.00
2023-01-17T18:18:40.260Z,11.52
2023-01-17T18:19:53.870Z,12.52
2023-01-17T18:21:24.254Z,12.02
2023-01-17T18:22:57.675Z,14.60
2023-01-17T18:24:20.514Z,13.95
2023-01-17T18:32:15.234Z,19.27
2023-01-17T18:33:51.995Z,24.83
2023-01-17T18:34:58.119Z,25.52
2023-01-17T18:58:52.436Z,30.17
2023-01-17T19:00:24.428Z,31.42
2023-01-17T19:01:33.722Z,29.58
2023-01-17T19:05:12.935Z,29.70
2023-01-17T19:08:57.168Z,29.02
2023-01-17T19:10:27.238Z,27.92
2023-01-17T19:11:37.965Z,32.80
2023-01-17T19:12:57.868Z,39.92
2023-01-17T19:14:09.813Z,36.80
2023-01-17T19:15:36.472Z,35.08
2023-01-17T19:17:05.296Z,39.53
2023-01-17T19:18:33.225Z,30.65
2023-01-17T19:22:25.761Z,25.90
2023-01-17T19:27:30.839Z,25.00
2023-01-17T19:31:40.650Z,20.48
2023-01-17T19:32:46.875Z,26.63
2023-01-17T19:33:57.806Z,25.10
2023-01-17T19:36:48.429Z,26.13
2023-01-17T19:38:20.467Z,24.48
2023-01-17T19:39:26.814Z,21.73
2023-01-17T19:40:30.668Z,26.65
2023-01-17T19:42:20.779Z,23.67
2023-01-17T19:43:29.724Z,21.77
2023-01-17T19:44:42.979Z,25.90
2023-01-17T19:47:47.374Z,23.75
2023-01-17T19:48:55.212Z,23.52
2023-01-17T19:49:59.980Z,22.40
2023-01-17T19:51:12.978Z,24.00
2023-01-17T19:52:34.271Z,23.20
2023-01-17T19:53:48.872Z,25.58
2023-01-17T19:54:53.459Z,22.52
2023-01-17T19:56:00.875Z,23.92
2023-01-17T19:58:48.227Z,25.40